Time;durP1;ratioP1;P1;durP2;ratioP2;P2;SDS_P1;SDS_P2;PMS_P1;PMS_P2;Temp;Humidity;BMP_temperature;BMP_pressure;BME280_temperature;BME280_humidity;BME280_pressure;Samples;Min_cycle;Max_cycle;Signal;HPM_P1;HPM_P2
2022/03/03 00:00:19;;;;;;;13.10;9.17;;;7.20;52.20;;;;;;6071384;23;20423;-83
2022/03/03 00:02:54;;;;;;;12.00;9.50;;;7.10;52.20;;;;;;6062659;23;20744;-84
2022/03/03 00:06:01;;;;;;;;;;;;;;;;;;;;;
2022/03/03 00:08:40;;;;;;;13.13;9.83;;;7.20;52.40;;;;;;6088679;23;20731;-85
2022/03/03 00:11:12;;;;;;;12.33;10.03;;;7.20;53.50;;;;;;6094996;23;20824;-84
2022/03/03 00:13:41;;;;;;;12.40;9.40;;;7.10;54.00;;;;;;6094453;23;20447;-84
2022/03/03 00:16:15;;;;;;;12.03;9.50;;;7.00;54.10;;;;;;6068679;23;20429;-82
2022/03/03 00:19:06;;;;;;;12.10;9.47;;;7.00;54.40;;;;;;6096001;23;20495;-84
2022/03/03 00:21:47;;;;;;;11.83;9.70;;;6.90;54.10;;;;;;6086976;23;20435;-85
2022/03/03 00:24:52;;;;;;;10.53;9.27;;;6.90;54.40;;;;;;6087038;23;20915;-84
2022/03/03 00:27:30;;;;;;;9.80;8.80;;;7.00;55.00;;;;;;6087769;23;20420;-84
2022/03/03 00:30:00;;;;;;;11.37;9.00;;;6.90;54.20;;;;;;6097960;23;20471;-83
2022/03/03 00:32:40;;;;;;;10.03;8.60;;;6.90;53.90;;;;;;6088300;23;20444;-83
2022/03/03 00:35:22;;;;;;;12.37;8.90;;;6.90;54.40;;;;;;6089463;23;20404;-83
2022/03/03 00:37:54;;;;;;;11.10;9.97;;;7.00;54.70;;;;;;6109233;23;20472;-85
2022/03/03 00:40:49;;;;;;;11.87;10.27;;;7.00;54.60;;;;;;6107677;23;20488;-86
2022/03/03 00:43:20;;;;;;;12.90;10.37;;;6.90;54.50;;;;;;6108797;23;20472;-85
2022/03/03 00:46:04;;;;;;;14.10;10.50;;;6.90;54.70;;;;;;6095688;23;20524;-84
2022/03/03 00:48:38;;;;;;;10.87;9.80;;;6.80;55.20;;;;;;6073096;23;20456;-84
2022/03/03 00:51:06;;;;;;;10.03;9.00;;;6.90;55.20;;;;;;6085676;23;20416;-83
2022/03/03 00:53:35;;;;;;;10.70;9.40;;;6.70;54.60;;;;;;6093898;23;20408;-84
2022/03/03 00:56:04;;;;;;;10.60;9.50;;;6.70;54.70;;;;;;6085268;23;20752;-84
2022/03/03 00:58:33;;;;;;;10.70;9.03;;;6.70;55.10;;;;;;6086538;23;20952;-83
2022/03/03 01:01:01;;;;;;;17.03;13.23;;;6.60;54.90;;;;;;6085513;23;20490;-85
2022/03/03 01:03:29;;;;;;;11.80;9.67;;;6.60;54.90;;;;;;6091401;23;20424;-83
2022/03/03 01:05:56;;;;;;;12.57;10.53;;;6.80;55.20;;;;;;6086062;23;20420;-84
2022/03/03 01:08:23;;;;;;;10.17;9.10;;;6.80;55.30;;;;;;6088145;23;20788;-84
2022/03/03 01:10:51;;;;;;;11.40;9.03;;;6.60;55.20;;;;;;6085191;23;20435;-85
2022/03/03 01:13:20;;;;;;;13.10;10.17;;;6.50;55.50;;;;;;6085716;23;20416;-84
2022/03/03 01:15:47;;;;;;;12.37;9.80;;;6.40;55.70;;;;;;6087348;23;20832;-85
2022/03/03 01:18:16;;;;;;;13.17;10.07;;;6.40;56.00;;;;;;6086662;23;20511;-84
2022/03/03 01:20:43;;;;;;;12.00;10.10;;;6.60;56.20;;;;;;6086522;23;20736;-82
2022/03/03 01:23:13;;;;;;;13.73;9.90;;;6.40;56.00;;;;;;6087294;23;20499;-85
2022/03/03 01:25:41;;;;;;;10.90;9.60;;;6.40;56.30;;;;;;6094046;23;20992;-84
2022/03/03 01:28:09;;;;;;;12.73;9.93;;;6.30;56.60;;;;;;6098606;23;20436;-83
2022/03/03 01:30:36;;;;;;;12.50;9.43;;;6.40;56.30;;;;;;6094114;23;20778;-83
2022/03/03 01:33:05;;;;;;;13.20;9.97;;;6.40;56.30;;;;;;6095117;23;20487;-84
2022/03/03 01:36:01;;;;;;;14.80;9.90;;;6.40;56.60;;;;;;6071113;23;20397;-83
2022/03/03 01:38:52;;;;;;;13.13;9.17;;;6.40;56.50;;;;;;6091734;23;20424;-84
2022/03/03 01:41:21;;;;;;;15.90;10.20;;;6.50;56.30;;;;;;6095559;23;20439;-84
2022/03/03 01:47:47;;;;;;;9.90;8.23;;;6.40;56.20;;;;;;6109819;23;20435;-84
2022/03/03 01:50:14;;;;;;;11.10;9.50;;;6.20;56.40;;;;;;6127918;23;20944;-82
2022/03/03 01:52:55;;;;;;;12.97;9.70;;;6.20;57.00;;;;;;6149418;23;20403;-81
2022/03/03 01:58:37;;;;;;;10.50;9.23;;;6.20;57.50;;;;;;6151230;23;20450;-83
2022/03/03 02:01:39;;;;;;;11.77;9.67;;;6.00;57.60;;;;;;6155629;23;21240;-84
2022/03/03 02:04:38;;;;;;;12.77;10.20;;;6.10;58.00;;;;;;6154526;23;20440;-82
2022/03/03 02:07:30;;;;;;;11.80;10.23;;;6.00;57.50;;;;;;6121915;23;20399;-84
2022/03/03 02:10:19;;;;;;;11.57;9.60;;;5.90;57.90;;;;;;6138107;23;20414;-84
2022/03/03 02:13:13;;;;;;;10.87;8.80;;;6.10;58.60;;;;;;6137222;23;20935;-83
2022/03/03 02:16:20;;;;;;;;;;;;;;;;;;;;;
2022/03/03 02:19:40;;;;;;;11.77;9.20;;;6.10;58.50;;;;;;6142435;23;20429;-83
2022/03/03 02:22:23;;;;;;;12.23;9.33;;;6.10;57.90;;;;;;6112516;23;20407;-81
2022/03/03 02:25:14;;;;;;;9.67;8.47;;;6.00;58.00;;;;;;6132310;23;20404;-82
2022/03/03 02:28:06;;;;;;;13.40;9.67;;;5.90;58.10;;;;;;6100711;23;20466;-81
2022/03/03 02:30:48;;;;;;;13.13;10.60;;;6.00;58.50;;;;;;6131538;23;20446;-81
2022/03/03 02:33:23;;;;;;;12.67;9.63;;;6.00;59.00;;;;;;6125197;23;20963;-81
2022/03/03 02:36:20;;;;;;;13.77;10.13;;;5.90;59.20;;;;;;6151110;23;20406;-82
2022/03/03 02:39:12;;;;;;;12.07;9.73;;;5.80;59.20;;;;;;6147720;23;20438;-82
2022/03/03 02:41:44;;;;;;;13.57;9.77;;;5.80;59.80;;;;;;6126843;23;20446;-83
2022/03/03 02:44:13;;;;;;;14.60;10.50;;;5.80;60.80;;;;;;6124644;23;20490;-82
2022/03/03 02:46:50;;;;;;;13.57;10.33;;;5.80;61.20;;;;;;6125345;23;20749;-84
2022/03/03 02:49:27;;;;;;;13.10;10.07;;;5.70;61.40;;;;;;6139505;23;20521;-81
2022/03/03 02:52:08;;;;;;;11.60;9.10;;;5.60;61.90;;;;;;6154494;23;20419;-83
2022/03/03 02:54:34;;;;;;;11.17;9.00;;;5.70;62.00;;;;;;6151048;23;20402;-83
2022/03/03 03:01:08;;;;;;;14.70;9.63;;;5.60;62.30;;;;;;6150664;23;20447;-83
2022/03/03 03:03:47;;;;;;;12.00;10.00;;;5.60;63.60;;;;;;6150589;23;20422;-85
2022/03/03 03:06:32;;;;;;;10.77;9.67;;;5.50;63.80;;;;;;6151331;23;20411;-82
2022/03/03 03:09:19;;;;;;;14.10;10.00;;;5.40;64.80;;;;;;6137893;23;20453;-84
2022/03/03 03:11:57;;;;;;;11.70;9.93;;;5.50;65.80;;;;;;6162377;23;20411;-84
2022/03/03 03:17:36;;;;;;;12.50;10.10;;;5.30;66.90;;;;;;6160487;23;20366;-83
2022/03/03 03:20:20;;;;;;;;;;;;;;;;;;;;;
2022/03/03 03:23:24;;;;;;;12.50;10.10;;;5.20;68.50;;;;;;6152839;23;20478;-83
2022/03/03 03:26:28;;;;;;;15.20;10.70;;;5.20;68.50;;;;;;6126496;23;20457;-82
2022/03/03 03:29:01;;;;;;;13.13;11.10;;;5.10;69.50;;;;;;6150193;23;20435;-82
2022/03/03 03:32:00;;;;;;;15.53;11.07;;;5.10;70.30;;;;;;6157209;23;20565;-83
2022/03/03 03:34:46;;;;;;;10.73;9.17;;;5.10;70.90;;;;;;6155392;23;20759;-83
2022/03/03 03:37:40;;;;;;;13.40;10.13;;;5.00;71.10;;;;;;6155369;23;20502;-84
2022/03/03 03:40:27;;;;;;;13.00;10.60;;;5.10;70.20;;;;;;6144528;23;20521;-83
2022/03/03 03:43:34;;;;;;;;;;;;;;;;;;;;;
2022/03/03 03:46:20;;;;;;;14.80;10.07;;;5.00;71.40;;;;;;6144325;23;20419;-82
2022/03/03 03:49:05;;;;;;;10.97;9.60;;;4.90;72.80;;;;;;6145425;23;20449;-86
2022/03/03 03:52:28;;;;;;;14.70;10.70;;;4.80;72.30;;;;;;6158314;23;20449;-84
2022/03/03 03:55:42;;;;;;;14.63;9.83;;;4.90;72.30;;;;;;6153616;23;20442;-84
2022/03/03 03:58:52;;;;;;;;;;;;;;;;;;;;;
2022/03/03 04:01:59;;;;;;;;;;;;;;;;;;;;;
2022/03/03 04:04:51;;;;;;;16.37;10.87;;;4.80;72.00;;;;;;6059929;23;20405;-85
2022/03/03 04:07:50;;;;;;;11.40;9.80;;;4.70;71.60;;;;;;6064423;23;20870;-85
2022/03/03 04:13:52;;;;;;;15.40;11.13;;;4.90;71.20;;;;;;6061884;23;20501;-84
2022/03/03 04:16:42;;;;;;;14.57;10.53;;;4.90;71.40;;;;;;6018333;23;20964;-84
2022/03/03 04:19:17;;;;;;;15.80;11.80;;;4.70;71.70;;;;;;6062105;23;20452;-84
2022/03/03 04:22:02;;;;;;;15.40;11.30;;;4.60;72.30;;;;;;6075536;23;20497;-85
2022/03/03 04:25:04;;;;;;;12.73;11.30;;;4.60;72.80;;;;;;6121767;23;20404;-85
2022/03/03 04:28:08;;;;;;;;;;;;;;;;;;;;;
2022/03/03 04:30:58;;;;;;;13.30;10.70;;;4.50;73.40;;;;;;6112551;23;20742;-84
2022/03/03 04:33:45;;;;;;;13.23;9.80;;;4.60;74.20;;;;;;6142699;23;20431;-85
2022/03/03 04:36:39;;;;;;;13.27;10.67;;;4.50;73.90;;;;;;6143862;23;20409;-84
2022/03/03 04:43:36;;;;;;;12.73;10.50;;;4.70;71.90;;;;;;6160212;23;20741;-83
2022/03/03 04:50:57;;;;;;;12.80;10.37;;;4.40;71.80;;;;;;6154117;23;20405;-86
2022/03/03 04:54:17;;;;;;;14.13;9.83;;;4.50;71.70;;;;;;6048380;23;20398;-85
2022/03/03 04:57:50;;;;;;;14.50;10.70;;;4.30;72.00;;;;;;6035539;23;20401;-85
2022/03/03 05:08:42;;;;;;;15.67;10.60;;;4.50;72.60;;;;;;5963574;23;20562;-84
2022/03/03 05:11:14;;;;;;;12.23;10.03;;;4.60;72.10;;;;;;6034323;23;20419;-85
2022/03/03 05:13:50;;;;;;;13.37;9.83;;;4.50;71.80;;;;;;6044598;23;20496;-85
2022/03/03 05:16:53;;;;;;;;;;;;;;;;;;;;;
2022/03/03 05:19:32;;;;;;;13.33;9.80;;;4.10;73.20;;;;;;6067191;23;20652;-85
2022/03/03 05:22:08;;;;;;;15.10;10.30;;;4.00;74.40;;;;;;6044798;23;20664;-85
2022/03/03 05:25:10;;;;;;;13.30;9.27;;;4.00;75.20;;;;;;6066699;23;20453;-84
2022/03/03 05:28:05;;;;;;;12.87;9.50;;;4.20;76.30;;;;;;6128815;23;20388;-86
2022/03/03 05:30:47;;;;;;;13.53;9.03;;;4.30;75.90;;;;;;6128667;23;20453;-85
2022/03/03 05:33:37;;;;;;;12.67;10.40;;;4.30;76.10;;;;;;6129446;23;20435;-82
2022/03/03 05:36:13;;;;;;;13.43;10.73;;;4.30;76.30;;;;;;6130042;23;20408;-85
2022/03/03 05:39:11;;;;;;;13.13;9.77;;;4.20;76.60;;;;;;6129448;23;20467;-85
2022/03/03 05:41:59;;;;;;;16.93;9.10;;;4.40;76.10;;;;;;6129038;23;20438;-85
2022/03/03 05:44:52;;;;;;;12.87;9.63;;;4.30;76.00;;;;;;6128923;23;20411;-84
2022/03/03 05:47:30;;;;;;;15.40;10.00;;;4.30;75.40;;;;;;6134216;23;20380;-84
2022/03/03 05:50:30;;;;;;;13.90;9.30;;;4.20;75.80;;;;;;6142021;23;20805;-84
2022/03/03 05:53:12;;;;;;;11.80;9.40;;;4.10;75.50;;;;;;6131368;23;20438;-83
2022/03/03 05:56:06;;;;;;;11.70;9.00;;;4.10;75.90;;;;;;6130493;23;20973;-86
2022/03/03 05:59:13;;;;;;;11.43;9.83;;;4.10;76.60;;;;;;6121527;23;20396;-84
2022/03/03 06:02:11;;;;;;;10.50;8.67;;;3.80;77.70;;;;;;6120384;23;20538;-84
2022/03/03 06:05:09;;;;;;;16.10;9.50;;;3.90;78.90;;;;;;6134492;23;20430;-84
2022/03/03 06:08:35;;;;;;;15.60;9.93;;;3.90;79.30;;;;;;6131001;23;20941;-84
2022/03/03 06:11:26;;;;;;;14.77;9.60;;;3.90;79.40;;;;;;6048087;23;20488;-85
2022/03/03 06:14:24;;;;;;;12.23;8.90;;;3.90;80.60;;;;;;6048487;23;20409;-85
2022/03/03 06:17:13;;;;;;;10.40;8.40;;;3.80;80.90;;;;;;6044837;23;21356;-84
2022/03/03 06:20:15;;;;;;;11.73;9.30;;;3.70;82.00;;;;;;6114129;23;20447;-84
2022/03/03 06:22:50;;;;;;;13.50;9.37;;;3.70;82.60;;;;;;6132051;23;20475;-85
2022/03/03 06:25:55;;;;;;;12.50;9.83;;;3.80;82.50;;;;;;6144718;23;20396;-85
2022/03/03 06:29:04;;;;;;;12.70;9.83;;;3.80;81.50;;;;;;6124342;23;20395;-86
2022/03/03 06:31:49;;;;;;;16.67;9.80;;;3.70;81.40;;;;;;6132085;23;21088;-84
2022/03/03 06:34:32;;;;;;;12.83;9.73;;;3.80;80.60;;;;;;6131675;23;20491;-84
2022/03/03 06:37:28;;;;;;;11.70;10.20;;;3.90;80.10;;;;;;6132713;23;20954;-83
2022/03/03 06:40:12;;;;;;;12.03;8.43;;;3.80;80.20;;;;;;6129904;23;20415;-85
2022/03/03 06:43:00;;;;;;;11.87;8.57;;;3.90;79.80;;;;;;6133921;23;20436;-86
2022/03/03 06:45:48;;;;;;;14.73;9.67;;;4.10;78.50;;;;;;6128786;23;20888;-84
2022/03/03 06:48:20;;;;;;;10.97;9.73;;;4.20;78.00;;;;;;6139289;23;20416;-85
2022/03/03 06:51:20;;;;;;;11.73;9.50;;;4.10;78.30;;;;;;6133237;23;20416;-84
2022/03/03 06:54:28;;;;;;;;;;;;;;;;;;;;;
2022/03/03 06:57:47;;;;;;;9.80;7.97;;;4.20;77.90;;;;;;6141737;23;21052;-84
2022/03/03 07:00:54;;;;;;;13.40;9.60;;;4.10;78.20;;;;;;6129217;23;20450;-82
2022/03/03 07:03:48;;;;;;;13.93;9.50;;;4.10;78.40;;;;;;6129159;23;20435;-85
2022/03/03 07:06:56;;;;;;;14.77;9.70;;;4.20;77.40;;;;;;6126661;23;20420;-86
2022/03/03 07:10:00;;;;;;;11.90;9.47;;;4.50;77.10;;;;;;6125925;23;20415;-85
2022/03/03 07:12:35;;;;;;;11.47;8.70;;;4.60;75.20;;;;;;6098105;23;20451;-83
2022/03/03 07:15:16;;;;;;;12.83;9.43;;;4.50;75.60;;;;;;6134936;23;20434;-85
2022/03/03 07:18:18;;;;;;;11.70;9.40;;;4.90;74.30;;;;;;6106956;23;20502;-84
2022/03/03 07:21:31;;;;;;;11.20;9.17;;;4.70;74.10;;;;;;6103235;23;20813;-86
2022/03/03 07:24:27;;;;;;;11.40;9.73;;;4.70;73.70;;;;;;6113484;23;20412;-85
2022/03/03 07:27:08;;;;;;;11.53;8.50;;;4.90;73.10;;;;;;6105809;23;20419;-85
2022/03/03 07:30:12;;;;;;;13.50;8.80;;;4.90;74.10;;;;;;6127436;23;20404;-85
2022/03/03 07:33:21;;;;;;;12.53;10.30;;;7.20;71.80;;;;;;6077713;23;20988;-85
2022/03/03 07:36:23;;;;;;;21.30;10.03;;;10.30;61.10;;;;;;6105873;23;20466;-85
2022/03/03 07:39:31;;;;;;;13.50;10.20;;;12.20;53.10;;;;;;6116398;23;20435;-85
2022/03/03 07:42:48;;;;;;;12.50;10.03;;;13.00;50.00;;;;;;6113575;23;20507;-85
2022/03/03 07:45:29;;;;;;;12.23;10.77;;;13.00;48.00;;;;;;6115705;23;20414;-86
2022/03/03 07:48:24;;;;;;;13.00;10.60;;;12.90;47.10;;;;;;6130880;23;20415;-83
2022/03/03 07:51:44;;;;;;;;;;;;;;;;;;;;;
2022/03/03 07:54:19;;;;;;;13.17;10.90;;;14.30;46.00;;;;;;6119363;23;20491;-82
2022/03/03 07:57:21;;;;;;;13.03;11.10;;;16.40;42.40;;;;;;6095726;23;20896;-86
2022/03/03 08:00:25;;;;;;;15.00;10.80;;;14.50;41.10;;;;;;6095600;23;20764;-86
2022/03/03 08:03:15;;;;;;;14.13;10.40;;;11.40;44.40;;;;;;6070408;23;20436;-85
2022/03/03 08:06:14;;;;;;;13.53;10.50;;;9.00;49.10;;;;;;6080252;23;20758;-85
2022/03/03 08:08:54;;;;;;;13.03;10.13;;;7.60;53.40;;;;;;6077584;23;20916;-84
2022/03/03 08:11:36;;;;;;;12.77;10.80;;;8.00;55.50;;;;;;6078334;23;20421;-81
2022/03/03 08:14:19;;;;;;;13.53;10.70;;;8.90;55.40;;;;;;6078034;23;20908;-84
2022/03/03 08:20:28;;;;;;;12.33;10.43;;;8.60;53.60;;;;;;6098663;23;20416;-84
2022/03/03 08:23:12;;;;;;;13.50;10.53;;;7.40;55.30;;;;;;6097758;23;20496;-85
2022/03/03 08:26:03;;;;;;;12.07;10.70;;;6.70;57.70;;;;;;6015531;23;20817;-84
2022/03/03 08:29:11;;;;;;;16.50;10.93;;;6.30;59.70;;;;;;6023275;23;20432;-85
2022/03/03 08:31:58;;;;;;;;;;;;;;;;;;;;;
2022/03/03 08:35:18;;;;;;;13.17;10.60;;;6.10;63.80;;;;;;6015718;23;20512;-85
2022/03/03 08:38:16;;;;;;;17.67;10.47;;;6.10;63.90;;;;;;6077212;23;20955;-86
2022/03/03 08:41:20;;;;;;;12.20;11.00;;;6.10;64.30;;;;;;6072371;23;20790;-85
2022/03/03 08:44:04;;;;;;;15.80;11.50;;;6.40;63.70;;;;;;6037560;23;20420;-85
2022/03/03 08:47:11;;;;;;;17.27;12.40;;;6.40;63.70;;;;;;6101538;23;20424;-85
2022/03/03 08:53:19;;;;;;;14.23;10.07;;;6.70;63.40;;;;;;6054257;23;20473;-85
2022/03/03 08:56:35;;;;;;;13.50;10.07;;;6.80;63.30;;;;;;6092150;23;20420;-85
2022/03/03 09:06:38;;;;;;;12.87;10.90;;;6.20;62.60;;;;;;5995558;23;20419;-84
2022/03/03 09:09:37;;;;;;;13.63;10.07;;;6.50;63.60;;;;;;5992837;23;20410;-84
2022/03/03 09:12:39;;;;;;;11.23;10.10;;;6.90;62.70;;;;;;5995781;23;20470;-85
2022/03/03 09:15:25;;;;;;;11.87;9.50;;;6.90;61.80;;;;;;6022445;23;20427;-84
2022/03/03 09:18:11;;;;;;;13.83;9.37;;;7.20;62.50;;;;;;5993209;23;20412;-81
2022/03/03 09:21:19;;;;;;;12.27;10.90;;;7.30;60.90;;;;;;6067304;23;20471;-83
2022/03/03 09:30:56;;;;;;;12.53;10.83;;;7.40;59.50;;;;;;6099878;23;20397;-86
2022/03/03 09:33:46;;;;;;;14.67;11.83;;;7.70;59.40;;;;;;6099457;23;20454;-83
2022/03/03 09:36:44;;;;;;;14.30;10.27;;;8.00;58.60;;;;;;6092778;23;20427;-86
2022/03/03 09:39:47;;;;;;;10.63;9.00;;;8.10;58.50;;;;;;6105501;23;20429;-83
2022/03/03 09:42:39;;;;;;;11.70;10.33;;;8.00;58.00;;;;;;6130227;23;20456;-86
2022/03/03 09:45:42;;;;;;;13.03;11.53;;;7.90;57.90;;;;;;6100622;23;20397;-85
2022/03/03 09:55:19;;;;;;;12.17;10.40;;;8.60;56.40;;;;;;6084783;23;20435;-85
2022/03/03 09:58:25;;;;;;;13.30;10.40;;;8.70;56.10;;;;;;6115997;23;20409;-85
2022/03/03 10:01:21;;;;;;;10.77;9.13;;;8.90;56.40;;;;;;6114797;23;20444;-85
2022/03/03 10:04:49;;;;;;;12.27;9.60;;;10.60;53.80;;;;;;6132876;23;20475;-85
2022/03/03 10:08:11;;;;;;;12.70;10.50;;;11.20;50.10;;;;;;6114299;23;20522;-86
2022/03/03 10:11:19;;;;;;;12.40;11.13;;;13.10;47.40;;;;;;6088238;23;20407;-86
2022/03/03 10:14:11;;;;;;;13.23;10.27;;;14.00;44.60;;;;;;6104288;23;20506;-86
2022/03/03 10:17:27;;;;;;;13.43;10.83;;;15.20;42.20;;;;;;6130330;23;20835;-86
2022/03/03 10:20:46;;;;;;;17.50;12.37;;;13.90;41.60;;;;;;6076177;23;20442;-85
2022/03/03 10:23:39;;;;;;;14.70;12.77;;;12.50;43.90;;;;;;6101959;23;20415;-84
2022/03/03 10:26:44;;;;;;;16.27;12.87;;;11.90;45.60;;;;;;6090626;23;20407;-86
2022/03/03 10:29:35;;;;;;;14.23;12.63;;;11.70;46.30;;;;;;6119175;23;20411;-85
2022/03/03 10:32:39;;;;;;;16.50;11.90;;;11.40;47.10;;;;;;6106492;23;20435;-86
2022/03/03 10:35:26;;;;;;;13.93;10.10;;;11.40;47.50;;;;;;6107396;23;20482;-85
2022/03/03 10:38:08;;;;;;;12.53;9.77;;;11.30;47.40;;;;;;6105537;23;20420;-84
2022/03/03 10:40:44;;;;;;;14.30;11.60;;;11.40;47.20;;;;;;6108380;23;20420;-83
2022/03/03 10:43:54;;;;;;;14.13;10.00;;;10.90;47.30;;;;;;6131095;23;20455;-84
2022/03/03 10:46:41;;;;;;;15.33;12.03;;;10.60;48.20;;;;;;6103693;23;20418;-85
2022/03/03 10:49:36;;;;;;;14.10;11.30;;;10.60;48.60;;;;;;6107514;23;20426;-84
2022/03/03 10:52:40;;;;;;;15.77;11.50;;;10.70;49.00;;;;;;6119041;23;20424;-85
2022/03/03 10:55:54;;;;;;;14.83;12.33;;;10.60;49.10;;;;;;6103678;23;20474;-84
2022/03/03 10:58:55;;;;;;;16.47;11.60;;;10.60;49.20;;;;;;5984986;23;20532;-85
2022/03/03 11:02:34;;;;;;;;;;;;;;;;;;;;;
2022/03/03 11:05:23;;;;;;;13.63;10.30;;;10.50;50.20;;;;;;6015606;23;20423;-84
2022/03/03 11:08:48;;;;;;;13.70;10.97;;;10.70;48.80;;;;;;6097053;23;20810;-86
2022/03/03 11:14:23;;;;;;;15.43;11.90;;;10.70;48.80;;;;;;6105949;23;20438;-85
2022/03/03 11:17:09;;;;;;;12.90;11.50;;;10.60;48.90;;;;;;6092636;23;20435;-85
2022/03/03 11:23:14;;;;;;;13.80;11.53;;;10.90;48.90;;;;;;6117101;23;20447;-83
2022/03/03 11:26:07;;;;;;;12.83;11.13;;;10.70;48.90;;;;;;6092797;23;20492;-84
2022/03/03 11:32:42;;;;;;;12.33;11.13;;;11.10;48.10;;;;;;6016099;23;20442;-84
2022/03/03 11:35:57;;;;;;;12.47;10.97;;;11.00;48.30;;;;;;6041149;23;20521;-83
2022/03/03 11:39:37;;;;;;;;;;;;;;;;;;;;;
2022/03/03 11:42:47;;;;;;;12.47;11.10;;;11.30;48.30;;;;;;6030307;23;20454;-83
2022/03/03 11:50:27;;;;;;;12.80;10.87;;;11.20;46.80;;;;;;5936313;23;20840;-83
2022/03/03 11:54:03;;;;;;;13.87;9.63;;;11.50;45.20;;;;;;6029660;23;20442;-84
2022/03/03 11:57:40;;;;;;;11.10;9.63;;;11.50;43.10;;;;;;6064219;23;21210;-84
2022/03/03 12:01:02;;;;;;;10.40;8.50;;;11.60;43.90;;;;;;5989376;23;20388;-81
2022/03/03 12:04:05;;;;;;;12.20;8.80;;;11.60;42.90;;;;;;6118279;23;20416;-83
2022/03/03 12:11:05;;;;;;;12.00;10.67;;;11.80;42.20;;;;;;6006229;23;20416;-82
2022/03/03 12:21:24;;;;;;;11.77;9.67;;;12.00;41.40;;;;;;6136738;23;20788;-85
2022/03/03 12:24:36;;;;;;;11.70;9.97;;;12.20;41.50;;;;;;5989619;23;20949;-86
2022/03/03 12:35:02;;;;;;;12.27;10.83;;;12.50;40.80;;;;;;6093084;23;20533;-85
2022/03/03 12:46:05;;;;;;;11.47;10.27;;;12.90;40.50;;;;;;5965315;23;20467;-86
2022/03/03 12:56:00;;;;;;;10.40;8.93;;;13.60;38.10;;;;;;6044506;23;20468;-84
2022/03/03 12:59:08;;;;;;;12.10;9.90;;;14.10;36.70;;;;;;5981792;24;20440;-85
2022/03/03 13:02:20;;;;;;;10.00;9.00;;;14.40;36.80;;;;;;5941164;24;20470;-86
2022/03/03 13:13:10;;;;;;;11.17;10.00;;;15.40;34.10;;;;;;6139790;23;20436;-88
2022/03/03 13:16:17;;;;;;;9.50;8.50;;;15.40;34.40;;;;;;6100388;23;20409;-88
2022/03/03 13:19:19;;;;;;;11.93;9.80;;;16.10;33.00;;;;;;6088097;23;20434;-86
2022/03/03 13:22:18;;;;;;;11.77;8.70;;;16.20;31.90;;;;;;6073010;23;20459;-84
2022/03/03 13:25:47;;;;;;;10.23;9.33;;;16.20;31.60;;;;;;6070768;23;20430;-85
2022/03/03 13:29:30;;;;;;;;;;;;;;;;;;;;;
2022/03/03 13:32:46;;;;;;;11.23;9.80;;;16.50;31.20;;;;;;6014730;23;20506;-83
2022/03/03 13:39:46;;;;;;;8.50;7.70;;;16.70;30.00;;;;;;5885037;23;20394;-84
2022/03/03 14:05:20;;;;;;;9.37;8.47;;;15.50;29.30;;;;;;6096798;23;20436;-86
2022/03/03 14:08:54;;;;;;;8.47;7.50;;;16.40;29.30;;;;;;6032296;23;20409;-84
2022/03/03 14:12:22;;;;;;;;;;;;;;;;;;;;;
2022/03/03 14:15:44;;;;;;;8.07;7.07;;;15.60;28.50;;;;;;6040984;23;20451;-85
2022/03/03 14:18:31;;;;;;;8.97;7.63;;;15.30;28.90;;;;;;6028206;23;20414;-84
2022/03/03 14:21:46;;;;;;;8.77;7.87;;;14.90;29.00;;;;;;6040883;23;20423;-84
2022/03/03 14:24:30;;;;;;;9.63;8.73;;;15.00;29.80;;;;;;6035648;23;20428;-86
2022/03/03 14:31:15;;;;;;;9.50;8.20;;;14.90;30.40;;;;;;6040099;23;20741;-85
2022/03/03 14:34:41;;;;;;;9.80;7.43;;;14.70;30.70;;;;;;6006810;23;20398;-82
2022/03/03 14:37:20;;;;;;;9.53;8.47;;;14.70;31.10;;;;;;5982603;23;20466;-86
2022/03/03 14:40:09;;;;;;;10.90;7.53;;;14.60;31.60;;;;;;6015222;23;20422;-87
2022/03/03 14:42:59;;;;;;;8.13;7.30;;;14.40;30.50;;;;;;6019426;23;20456;-84
2022/03/03 14:45:54;;;;;;;9.60;7.20;;;14.00;30.70;;;;;;6137759;23;20425;-86
2022/03/03 14:48:51;;;;;;;10.20;8.00;;;14.20;31.30;;;;;;6119305;23;20391;-86
2022/03/03 14:51:47;;;;;;;8.63;7.70;;;14.30;31.10;;;;;;6111015;23;20419;-84
2022/03/03 14:54:29;;;;;;;8.73;7.20;;;14.30;31.60;;;;;;6121643;23;20443;-83
2022/03/03 14:57:05;;;;;;;9.30;7.77;;;14.50;31.00;;;;;;6100583;23;20712;-84
2022/03/03 14:59:50;;;;;;;9.07;7.60;;;14.30;30.90;;;;;;6098532;23;20427;-85
2022/03/03 15:06:32;;;;;;;9.00;8.10;;;14.20;33.10;;;;;;5956559;23;20399;-85
2022/03/03 15:09:43;;;;;;;10.50;9.00;;;14.10;32.40;;;;;;6002598;23;20419;-85
2022/03/03 15:13:05;;;;;;;9.87;8.40;;;13.80;32.40;;;;;;6002819;23;20456;-84
2022/03/03 15:16:15;;;;;;;;;;;;;;;;;;;;;
2022/03/03 15:19:21;;;;;;;9.30;8.40;;;14.30;31.70;;;;;;5925072;24;20449;-86
2022/03/03 15:22:05;;;;;;;8.90;7.93;;;14.30;31.40;;;;;;5926037;24;20464;-86
2022/03/03 15:25:13;;;;;;;9.43;8.53;;;14.40;31.30;;;;;;5926708;24;20413;-86
2022/03/03 15:28:24;;;;;;;8.70;7.80;;;14.30;32.00;;;;;;5923449;24;20428;-84
2022/03/03 15:32:09;;;;;;;;;;;;;;;;;;;;;
2022/03/03 15:49:32;;;;;;;;;;;;;;;;;;;;;
2022/03/03 15:52:59;;;;;;;8.20;5.87;;;14.10;29.40;;;;;;5986309;23;20469;-85
2022/03/03 15:56:26;;;;;;;5.77;5.03;;;14.00;29.80;;;;;;5946391;24;20444;-83
2022/03/03 16:00:01;;;;;;;6.73;5.00;;;14.10;29.50;;;;;;5823721;24;20390;-84
2022/03/03 16:06:41;;;;;;;;;;;;;;;;;;;;;
2022/03/03 16:09:38;;;;;;;6.00;5.37;;;14.40;28.60;;;;;;5988048;24;20420;-84
2022/03/03 16:12:46;;;;;;;6.23;5.27;;;14.40;28.80;;;;;;5975748;24;20420;-85
2022/03/03 16:15:58;;;;;;;6.63;5.83;;;14.40;28.60;;;;;;5974854;24;20419;-85
2022/03/03 16:18:58;;;;;;;7.53;6.10;;;14.50;28.80;;;;;;5935019;24;20404;-83
2022/03/03 16:22:52;;;;;;;;;;;;;;;;;;;;;
2022/03/03 16:25:54;;;;;;;6.87;5.93;;;14.70;29.20;;;;;;5990462;23;20446;-84
2022/03/03 16:29:41;;;;;;;7.10;6.13;;;14.70;28.80;;;;;;6015232;23;20395;-83
2022/03/03 16:32:52;;;;;;;5.90;5.30;;;14.60;28.30;;;;;;6045011;23;20422;-84
2022/03/03 17:00:04;;;;;;;7.70;5.90;;;13.90;29.70;;;;;;6133968;23;20467;-85
2022/03/03 17:09:04;;;;;;;;;;;;;;;;;;;;;
2022/03/03 17:12:03;;;;;;;7.80;6.13;;;13.60;29.80;;;;;;6049375;23;20438;-84
2022/03/03 17:15:32;;;;;;;7.53;6.07;;;13.50;30.00;;;;;;6069822;23;20405;-85
2022/03/03 17:21:59;;;;;;;7.33;6.60;;;13.10;31.10;;;;;;6049361;23;20468;-83
2022/03/03 17:25:23;;;;;;;;;;;;;;;;;;;;;
2022/03/03 17:28:21;;;;;;;7.47;6.50;;;12.80;32.00;;;;;;5954627;24;20400;-84
2022/03/03 17:31:19;;;;;;;6.83;6.13;;;12.70;33.10;;;;;;5932049;24;20758;-85
2022/03/03 17:34:37;;;;;;;7.93;7.00;;;12.60;33.50;;;;;;5942608;24;20417;-84
2022/03/03 17:38:01;;;;;;;7.10;6.23;;;12.50;33.60;;;;;;5992871;23;20542;-83
2022/03/03 17:40:58;;;;;;;9.90;7.67;;;12.50;34.40;;;;;;5979837;23;20430;-86
2022/03/03 17:44:15;;;;;;;8.73;7.90;;;12.40;34.10;;;;;;5987149;23;20447;-85
2022/03/03 17:47:07;;;;;;;9.17;7.90;;;12.30;34.50;;;;;;6010432;23;20891;-81
2022/03/03 17:49:50;;;;;;;10.93;7.43;;;12.20;34.60;;;;;;6006877;23;20472;-84
2022/03/03 17:52:33;;;;;;;7.17;6.47;;;12.20;35.30;;;;;;6010731;23;20450;-82
2022/03/03 17:55:24;;;;;;;7.33;6.60;;;12.00;36.50;;;;;;5989333;23;20438;-81
2022/03/03 17:58:55;;;;;;;8.90;7.90;;;12.00;36.00;;;;;;5993493;23;20440;-85
2022/03/03 18:11:53;;;;;;;10.20;8.30;;;11.80;36.30;;;;;;6053499;23;20448;-87
2022/03/03 18:19:00;;;;;;;9.40;8.27;;;11.70;36.80;;;;;;5990857;24;20464;-84
2022/03/03 18:22:02;;;;;;;9.47;7.33;;;11.60;36.80;;;;;;5991787;24;20419;-83
2022/03/03 18:25:20;;;;;;;;;;;;;;;;;;;;;
2022/03/03 18:37:18;;;;;;;13.03;9.83;;;11.70;37.90;;;;;;6133908;23;20450;-85
2022/03/03 18:40:16;;;;;;;;;;;;;;;;;;;;;
2022/03/03 18:43:26;;;;;;;11.63;9.67;;;11.80;38.80;;;;;;6132643;23;21037;-86
2022/03/03 18:46:34;;;;;;;14.50;8.77;;;12.00;41.00;;;;;;5983031;24;20411;-84
2022/03/03 18:57:41;;;;;;;;;;;;;;;;;;;;;
2022/03/03 19:01:30;;;;;;;;;;;;;;;;;;;;;
2022/03/03 19:05:16;;;;;;;12.03;8.60;;;11.40;45.50;;;;;;5874898;24;20458;-87
2022/03/03 19:08:11;;;;;;;10.90;9.30;;;11.10;46.80;;;;;;5846651;24;20418;-85
2022/03/03 19:11:05;;;;;;;11.67;9.43;;;11.00;46.10;;;;;;5930060;24;20455;-85
2022/03/03 19:13:53;;;;;;;10.40;9.10;;;11.00;44.70;;;;;;5922465;24;20445;-84
2022/03/03 19:25:09;;;;;;;;;;;;;;;;;;;;;
2022/03/03 19:31:40;;;;;;;11.40;8.10;;;11.10;39.70;;;;;;6128970;23;20411;-85
2022/03/03 19:38:48;;;;;;;12.60;9.87;;;10.80;38.20;;;;;;6101850;23;20376;-84
2022/03/03 19:42:11;;;;;;;10.00;7.47;;;10.70;38.10;;;;;;6081604;23;20419;-82
2022/03/03 19:45:18;;;;;;;;;;;;;;;;;;;;;
2022/03/03 19:48:05;;;;;;;8.73;6.93;;;10.60;37.90;;;;;;6103691;23;20420;-84
2022/03/03 19:52:03;;;;;;;11.93;7.10;;;10.50;38.10;;;;;;6082565;23;20408;-85
2022/03/03 19:59:40;;;;;;;7.23;6.10;;;10.30;39.00;;;;;;6067548;23;20392;-84
2022/03/03 20:06:52;;;;;;;9.27;6.83;;;10.30;38.80;;;;;;6014694;23;20797;-84